createdAt,value
2023-06-11T00:01:25.221Z,101489.34
2023-06-11T00:03:54.887Z,101479.66
2023-06-11T00:06:23.447Z,101504.41
2023-06-11T00:08:54.162Z,101500.00
2023-06-11T00:11:22.634Z,101494.72
2023-06-11T00:13:50.124Z,101491.19
2023-06-11T00:16:17.710Z,101493.88
2023-06-11T00:18:47.519Z,101492.09
2023-06-11T00:21:15.395Z,101481.56
2023-06-11T00:23:46.812Z,101468.34
2023-06-11T00:26:15.558Z,101486.84
2023-06-11T00:28:44.489Z,101475.44
2023-06-11T00:31:11.153Z,101478.06
2023-06-11T00:33:38.071Z,101468.41
2023-06-11T00:36:07.223Z,101470.13
2023-06-11T00:38:34.369Z,101463.13
2023-06-11T00:41:01.086Z,101463.09
2023-06-11T00:43:28.250Z,101439.22
2023-06-11T00:45:55.782Z,101448.97
2023-06-11T00:48:22.597Z,101427.75
2023-06-11T00:50:53.209Z,101443.69
2023-06-11T00:53:23.297Z,101442.75
2023-06-11T00:55:50.008Z,101440.97
2023-06-11T00:58:18.776Z,101441.84
2023-06-11T01:00:50.543Z,101446.22
2023-06-11T01:03:28.175Z,101436.47
2023-06-11T01:06:12.640Z,101428.50
2023-06-11T01:08:42.254Z,101417.94
2023-06-11T01:11:22.900Z,101415.28
2023-06-11T01:13:50.469Z,101398.44
2023-06-11T01:16:21.353Z,101418.72
2023-06-11T01:19:18.241Z,101411.63
2023-06-11T01:21:51.783Z,101406.31
2023-06-11T01:24:23.244Z,101413.34
2023-06-11T01:26:53.023Z,101420.38
2023-06-11T01:29:23.806Z,101388.56
2023-06-11T01:31:52.199Z,101412.47
2023-06-11T01:34:21.296Z,101420.41
2023-06-11T01:36:48.209Z,101397.56
2023-06-11T01:39:20.279Z,101394.91
2023-06-11T01:41:46.993Z,101392.34
2023-06-11T01:44:17.409Z,101391.47
2023-06-11T01:46:44.080Z,101360.59
2023-06-11T01:49:12.971Z,101385.31
2023-06-11T01:51:40.229Z,101368.59
2023-06-11T01:54:07.363Z,101376.53
2023-06-11T01:56:36.466Z,101387.97
2023-06-11T01:59:05.815Z,101364.19
2023-06-11T02:01:34.129Z,101380.03
2023-06-11T02:04:03.213Z,101370.31
2023-06-11T02:06:31.138Z,101372.09
2023-06-11T02:08:57.802Z,101357.06
2023-06-11T02:11:27.082Z,101376.53
2023-06-11T02:13:53.705Z,101387.06
2023-06-11T02:16:20.421Z,101385.34
2023-06-11T02:18:47.109Z,101391.53
2023-06-11T02:21:13.750Z,101393.28
2023-06-11T02:23:40.385Z,101392.41
2023-06-11T02:26:07.093Z,101391.56
2023-06-11T02:28:33.911Z,101395.97
2023-06-11T02:31:03.360Z,101390.72
2023-06-11T02:33:30.025Z,101394.25
2023-06-11T02:35:59.255Z,101403.06
2023-06-11T02:38:26.077Z,101406.56
2023-06-11T02:40:52.999Z,101392.41
2023-06-11T02:43:19.782Z,101418.03
2023-06-11T02:45:46.418Z,101421.56
2023-06-11T02:48:15.675Z,101413.63
2023-06-11T02:50:44.948Z,101396.91
2023-06-11T02:53:11.646Z,101422.50
2023-06-11T02:55:38.372Z,101422.56
2023-06-11T02:58:05.055Z,101424.31
2023-06-11T03:00:34.103Z,101395.22
2023-06-11T03:03:00.818Z,101429.66
2023-06-11T03:05:27.714Z,101426.13
2023-06-11T03:07:59.365Z,101433.19
2023-06-11T03:10:29.413Z,101431.41
2023-06-11T03:12:58.576Z,101433.19
2023-06-11T03:15:28.263Z,101434.94
2023-06-11T03:17:57.376Z,101439.31
2023-06-11T03:20:24.392Z,101436.69
2023-06-11T03:22:51.573Z,101434.94
2023-06-11T03:25:18.304Z,101436.69
2023-06-11T03:27:44.997Z,101445.47
2023-06-11T03:30:12.791Z,101445.50
2023-06-11T03:32:40.218Z,101444.59
2023-06-11T03:35:07.219Z,101448.13
2023-06-11T03:37:34.018Z,101438.44
2023-06-11T03:40:00.867Z,101445.50
2023-06-11T03:42:29.989Z,101437.56
2023-06-11T03:44:56.713Z,101434.91
2023-06-11T03:47:23.435Z,101436.69
2023-06-11T03:49:52.933Z,101435.78
2023-06-11T03:52:19.729Z,101443.75
2023-06-11T03:54:46.436Z,101417.31
2023-06-11T03:57:13.641Z,101424.38
2023-06-11T03:59:42.923Z,101433.19
2023-06-11T04:02:09.744Z,101432.34
2023-06-11T04:04:38.061Z,101400.59
2023-06-11T04:07:05.238Z,101426.19
2023-06-11T04:09:32.578Z,101420.03
2023-06-11T04:11:59.256Z,101420.94
2023-06-11T04:14:26.029Z,101420.94
2023-06-11T04:16:52.792Z,101409.44
2023-06-11T04:19:19.830Z,101413.00
2023-06-11T04:21:48.983Z,101412.13
2023-06-11T04:24:16.763Z,101414.75
2023-06-11T04:26:44.751Z,101407.75
2023-06-11T04:29:11.428Z,101413.88
2023-06-11T04:31:43.213Z,101411.25
2023-06-11T04:34:10.873Z,101391.81
2023-06-11T04:36:39.726Z,101401.56
2023-06-11T04:39:09.442Z,101429.72
2023-06-11T04:41:39.152Z,101394.47
2023-06-11T04:44:05.915Z,101417.41
2023-06-11T04:46:36.048Z,101425.31
2023-06-11T04:49:05.347Z,101422.69
2023-06-11T04:51:34.203Z,101430.66
2023-06-11T04:54:09.293Z,101429.75
2023-06-11T04:56:36.136Z,101412.09
2023-06-11T04:59:06.528Z,101428.00
2023-06-11T05:01:33.920Z,101435.06
2023-06-11T05:04:00.810Z,101435.09
2023-06-11T05:06:34.928Z,101401.56
2023-06-11T05:09:01.731Z,101432.44
2023-06-11T05:11:30.599Z,101439.53
2023-06-11T05:13:57.194Z,101437.75
2023-06-11T05:16:27.368Z,101444.81
2023-06-11T05:18:54.352Z,101447.47
2023-06-11T05:21:23.388Z,101449.25
2023-06-11T05:23:53.021Z,101451.91
2023-06-11T05:26:20.385Z,101432.50
2023-06-11T05:28:47.437Z,101428.09
2023-06-11T05:31:14.451Z,101452.78
2023-06-11T05:33:41.171Z,101460.75
2023-06-11T05:36:10.095Z,101458.97
2023-06-11T05:38:38.698Z,101454.63
2023-06-11T05:41:05.366Z,101458.16
2023-06-11T05:43:32.073Z,101450.22
2023-06-11T05:46:01.387Z,101446.69
2023-06-11T05:48:28.460Z,101443.13
2023-06-11T05:50:58.216Z,101444.94
2023-06-11T05:53:27.168Z,101438.75
2023-06-11T05:55:55.656Z,101443.19
2023-06-11T05:58:23.371Z,101414.97
2023-06-11T06:00:51.284Z,101452.03
2023-06-11T06:03:20.490Z,101440.56
2023-06-11T06:05:47.222Z,101446.72
2023-06-11T06:08:13.872Z,101439.69
2023-06-11T06:10:40.634Z,101413.22
2023-06-11T06:13:07.460Z,101453.78
2023-06-11T06:15:34.135Z,101448.50
2023-06-11T06:18:00.914Z,101447.63
2023-06-11T06:20:27.661Z,101433.50
2023-06-11T06:22:54.330Z,101433.53
2023-06-11T06:25:20.987Z,101451.19
2023-06-11T06:27:47.718Z,101454.69
2023-06-11T06:30:17.030Z,101461.72
2023-06-11T06:32:44.600Z,101448.50
2023-06-11T06:35:11.980Z,101460.84
2023-06-11T06:37:38.922Z,101459.94
2023-06-11T06:40:06.480Z,101463.47
2023-06-11T06:42:35.514Z,101477.56
2023-06-11T06:45:02.497Z,101471.38
2023-06-11T06:47:31.884Z,101478.47
2023-06-11T06:50:01.055Z,101473.16
2023-06-11T06:52:31.754Z,101490.78
2023-06-11T06:54:58.796Z,101491.66
2023-06-11T06:57:25.537Z,101495.19
2023-06-11T06:59:54.520Z,101493.41
2023-06-11T07:02:21.457Z,101469.63
2023-06-11T07:04:51.988Z,101497.81
2023-06-11T07:07:18.776Z,101507.50
2023-06-11T07:09:45.565Z,101511.91
2023-06-11T07:12:12.644Z,101518.06
2023-06-11T07:14:39.335Z,101515.47
2023-06-11T07:17:09.182Z,101525.16
2023-06-11T07:19:38.326Z,101528.69
2023-06-11T07:22:05.300Z,101530.47
2023-06-11T07:24:32.254Z,101527.84
2023-06-11T07:26:58.979Z,101533.16
2023-06-11T07:29:26.848Z,101536.69
2023-06-11T07:31:53.546Z,101541.97
2023-06-11T07:34:21.428Z,101525.22
2023-06-11T07:36:48.177Z,101524.34
2023-06-11T07:39:14.942Z,101546.41
2023-06-11T07:41:43.922Z,101542.00
2023-06-11T07:44:10.719Z,101544.66
2023-06-11T07:46:37.501Z,101560.53
2023-06-11T07:49:04.978Z,101556.13
2023-06-11T07:51:34.220Z,101550.81
2023-06-11T07:54:05.942Z,101559.66
2023-06-11T07:56:32.807Z,101556.13
2023-06-11T07:59:04.306Z,101551.72
2023-06-11T08:01:31.119Z,101546.38
2023-06-11T08:03:58.189Z,101546.38
2023-06-11T08:06:27.858Z,101554.31
2023-06-11T08:08:57.500Z,101529.63
2023-06-11T08:11:24.456Z,101553.41
2023-06-11T08:13:51.408Z,101555.19
2023-06-11T08:16:18.981Z,101553.44
2023-06-11T08:18:48.147Z,101534.00
2023-06-11T08:21:17.646Z,101563.97
2023-06-11T08:23:44.462Z,101563.09
2023-06-11T08:26:11.202Z,101556.03
2023-06-11T08:28:37.922Z,101557.78
2023-06-11T08:31:04.811Z,101570.13
2023-06-11T08:33:31.640Z,101574.56
2023-06-11T08:35:58.423Z,101563.97
2023-06-11T08:38:30.999Z,101563.09
2023-06-11T08:40:58.091Z,101561.34
2023-06-11T08:43:25.565Z,101542.81
2023-06-11T08:45:55.770Z,101558.69
2023-06-11T08:48:25.663Z,101560.44
2023-06-11T08:50:52.610Z,101554.22
2023-06-11T08:53:20.769Z,101550.69
2023-06-11T08:55:47.609Z,101552.41
2023-06-11T08:58:14.811Z,101558.59
2023-06-11T09:00:41.792Z,101536.59
2023-06-11T09:03:09.467Z,101547.16
2023-06-11T09:05:36.818Z,101556.84
2023-06-11T09:08:08.639Z,101547.09
2023-06-11T09:10:35.955Z,101533.03
2023-06-11T09:13:02.595Z,101525.06
2023-06-11T09:15:29.570Z,101540.06
2023-06-11T09:17:56.430Z,101518.91
2023-06-11T09:20:23.773Z,101535.69
2023-06-11T09:22:52.295Z,101540.06
2023-06-11T09:25:21.208Z,101532.16
2023-06-11T09:27:50.657Z,101540.97
2023-06-11T09:30:19.703Z,101553.31
2023-06-11T09:32:48.956Z,101548.03
2023-06-11T09:35:21.859Z,101534.78
2023-06-11T09:37:52.778Z,101509.22
2023-06-11T09:40:24.519Z,101538.28
2023-06-11T09:42:53.944Z,101542.72
2023-06-11T09:45:22.592Z,101531.22
2023-06-11T09:47:50.183Z,101535.63
2023-06-11T09:50:19.165Z,101513.56
2023-06-11T09:52:47.048Z,101523.19
2023-06-11T09:55:15.161Z,101494.03
2023-06-11T09:57:43.781Z,101508.06
2023-06-11T10:00:13.372Z,101503.63
2023-06-11T10:02:42.432Z,101500.06
2023-06-11T10:05:11.866Z,101498.25
2023-06-11T10:07:49.869Z,101499.97
2023-06-11T10:10:20.706Z,101491.09
2023-06-11T10:12:56.758Z,101500.84
2023-06-11T10:15:25.284Z,101495.53
2023-06-11T10:17:55.656Z,101509.66
2023-06-11T10:20:26.940Z,101507.84
2023-06-11T10:23:12.149Z,101506.88
2023-06-11T10:25:41.523Z,101486.56
2023-06-11T10:28:10.857Z,101508.50
2023-06-11T10:30:37.875Z,101512.84
2023-06-11T10:33:07.010Z,101516.31
2023-06-11T10:35:38.032Z,101507.47
2023-06-11T10:38:13.909Z,101516.97
2023-06-11T10:40:40.806Z,101518.56
2023-06-11T10:43:22.559Z,101514.00
2023-06-11T10:46:08.171Z,101512.00
2023-06-11T10:48:34.882Z,101513.44
2023-06-11T10:51:06.926Z,101507.88
2023-06-11T10:53:42.275Z,101506.69
2023-06-11T10:56:10.604Z,101506.38
2023-06-11T10:58:40.102Z,101502.56
2023-06-11T11:01:09.974Z,101514.47
2023-06-11T11:03:39.701Z,101517.44
2023-06-11T11:06:06.766Z,101516.81
2023-06-11T11:08:36.593Z,101502.13
2023-06-11T11:11:03.894Z,101511.22
2023-06-11T11:13:30.885Z,101515.59
2023-06-11T11:15:59.791Z,101512.13
2023-06-11T11:18:26.565Z,101520.41
2023-06-11T11:20:57.635Z,101501.34
2023-06-11T11:23:27.967Z,101530.81
2023-06-11T11:25:54.641Z,101520.78
2023-06-11T11:28:23.971Z,101517.19
2023-06-11T11:30:57.174Z,101527.41
2023-06-11T11:33:23.878Z,101512.66
2023-06-11T11:35:52.253Z,101502.22
2023-06-11T11:38:18.960Z,101507.91
2023-06-11T11:40:45.673Z,101514.66
2023-06-11T11:43:16.674Z,101529.44
2023-06-11T11:45:49.936Z,101521.38
2023-06-11T11:48:17.665Z,101516.09
2023-06-11T11:50:46.614Z,101519.66
2023-06-11T11:53:19.885Z,101515.88
2023-06-11T11:56:04.370Z,101527.16
2023-06-11T11:58:42.169Z,101519.66
2023-06-11T12:01:24.224Z,101513.16
2023-06-11T12:04:02.069Z,101517.66
2023-06-11T12:06:31.032Z,101522.69
2023-06-11T12:08:57.969Z,101515.41
2023-06-11T12:11:27.479Z,101524.03
2023-06-11T12:13:54.360Z,101517.66
2023-06-11T12:16:24.929Z,101508.66
2023-06-11T12:19:03.948Z,101511.25
2023-06-11T12:21:37.489Z,101510.44
2023-06-11T12:24:05.082Z,101508.09
2023-06-11T12:26:33.226Z,101492.66
2023-06-11T12:29:01.336Z,101509.75
2023-06-11T12:31:28.035Z,101517.16
2023-06-11T12:33:57.161Z,101514.63
2023-06-11T12:36:26.171Z,101509.44
2023-06-11T12:38:52.899Z,101494.50
2023-06-11T12:41:20.079Z,101462.16
2023-06-11T12:43:49.318Z,101506.59
2023-06-11T12:46:16.659Z,101492.31
2023-06-11T12:48:43.450Z,101505.09
2023-06-11T12:51:10.209Z,101512.78
2023-06-11T12:53:37.078Z,101507.19
2023-06-11T12:56:06.192Z,101508.81
2023-06-11T12:58:32.940Z,101482.13
2023-06-11T13:01:02.004Z,101512.94
2023-06-11T13:03:28.730Z,101495.81
2023-06-11T13:05:55.556Z,101500.69
2023-06-11T13:08:22.259Z,101489.59
2023-06-11T13:10:49.098Z,101491.97
2023-06-11T13:13:15.962Z,101496.38
2023-06-11T13:15:44.692Z,101502.59
2023-06-11T13:18:13.739Z,101505.44
2023-06-11T13:20:41.321Z,101495.06
2023-06-11T13:23:08.949Z,101496.47
2023-06-11T13:25:38.087Z,101506.53
2023-06-11T13:28:05.151Z,101506.78
2023-06-11T13:30:31.803Z,101515.31
2023-06-11T13:33:01.629Z,101513.97
2023-06-11T13:35:29.559Z,101515.50
2023-06-11T13:37:59.597Z,101519.47
2023-06-11T13:40:28.591Z,101510.13
2023-06-11T13:42:55.442Z,101510.50
2023-06-11T13:45:22.256Z,101506.41
2023-06-11T13:47:51.389Z,101501.44
2023-06-11T13:50:18.296Z,101514.16
2023-06-11T13:52:48.379Z,101510.16
2023-06-11T13:55:15.287Z,101481.66
2023-06-11T13:57:42.429Z,101526.63
2023-06-11T14:00:12.503Z,101522.44
2023-06-11T14:02:39.550Z,101530.72
2023-06-11T14:05:06.717Z,101524.59
2023-06-11T14:07:34.331Z,101515.97
2023-06-11T14:10:06.097Z,101525.84
2023-06-11T14:12:33.260Z,101524.94
2023-06-11T14:15:00.023Z,101518.69
2023-06-11T14:17:28.836Z,101520.66
2023-06-11T14:19:57.812Z,101534.84
2023-06-11T14:22:27.020Z,101533.25
2023-06-11T14:24:53.699Z,101536.97
2023-06-11T14:27:20.422Z,101526.59
2023-06-11T14:29:47.040Z,101533.53
2023-06-11T14:32:16.678Z,101534.50
2023-06-11T14:34:46.023Z,101541.59
2023-06-11T14:37:12.866Z,101533.75
2023-06-11T14:39:41.052Z,101542.66
2023-06-11T14:42:11.589Z,101534.81
2023-06-11T14:44:38.330Z,101524.25
2023-06-11T14:47:05.650Z,101541.09
2023-06-11T14:49:37.147Z,101525.34
2023-06-11T14:52:09.737Z,101526.44
2023-06-11T14:54:37.484Z,101523.28
2023-06-11T14:57:33.313Z,101488.56
2023-06-11T15:00:05.439Z,101524.06
2023-06-11T15:02:37.619Z,101518.31
2023-06-11T15:05:04.662Z,101525.88
2023-06-11T15:07:35.331Z,101523.63
2023-06-11T15:10:04.650Z,101525.84
2023-06-11T15:12:34.103Z,101520.94
2023-06-11T15:15:02.225Z,101528.41
2023-06-11T15:17:34.229Z,101540.25
2023-06-11T15:20:01.144Z,101522.09
2023-06-11T15:22:28.076Z,101533.06
2023-06-11T15:24:54.807Z,101533.31
2023-06-11T15:27:21.690Z,101540.66
2023-06-11T15:29:51.304Z,101542.69
2023-06-11T15:32:21.105Z,101519.97
2023-06-11T15:34:48.478Z,101528.00
2023-06-11T15:37:15.341Z,101519.38
2023-06-11T15:39:42.270Z,101521.34
2023-06-11T15:42:09.067Z,101525.03
2023-06-11T15:44:36.140Z,101500.50
2023-06-11T15:47:05.262Z,101524.41
2023-06-11T15:49:36.808Z,101518.28
2023-06-11T15:52:06.153Z,101519.25
2023-06-11T15:54:32.883Z,101515.78
2023-06-11T15:57:02.350Z,101514.97
2023-06-11T15:59:29.018Z,101503.56
2023-06-11T16:01:55.854Z,101490.31
2023-06-11T16:04:25.561Z,101489.44
2023-06-11T16:06:54.644Z,101486.84
2023-06-11T16:09:21.371Z,101491.25
2023-06-11T16:11:48.072Z,101482.41
2023-06-11T16:14:16.155Z,101496.53
2023-06-11T16:16:43.604Z,101487.69
2023-06-11T16:19:12.588Z,101477.97
2023-06-11T16:21:39.276Z,101477.94
2023-06-11T16:24:09.406Z,101474.44
2023-06-11T16:26:36.203Z,101455.13
2023-06-11T16:29:05.313Z,101476.22
2023-06-11T16:31:32.208Z,101457.78
2023-06-11T16:34:00.706Z,101497.47
2023-06-11T16:36:29.258Z,101495.72
2023-06-11T16:39:01.232Z,101492.19
2023-06-11T16:41:35.447Z,101487.81
2023-06-11T16:44:02.308Z,101491.34
2023-06-11T16:46:31.522Z,101471.09
2023-06-11T16:49:00.509Z,101478.06
2023-06-11T16:51:31.823Z,101443.66
2023-06-11T16:53:58.453Z,101464.75
2023-06-11T16:56:27.654Z,101463.88
2023-06-11T16:58:59.015Z,101463.88
2023-06-11T17:01:28.645Z,101462.09
2023-06-11T17:03:55.596Z,101464.75
2023-06-11T17:06:22.449Z,101450.69
2023-06-11T17:08:49.168Z,101444.53
2023-06-11T17:11:15.916Z,101470.13
2023-06-11T17:13:45.110Z,101446.38
2023-06-11T17:16:16.608Z,101478.13
2023-06-11T17:18:43.898Z,101467.56
2023-06-11T17:21:10.787Z,101472.88
2023-06-11T17:23:37.596Z,101464.97
2023-06-11T17:26:04.536Z,101472.97
2023-06-11T17:28:31.882Z,101478.28
2023-06-11T17:30:58.769Z,101495.09
2023-06-11T17:33:27.697Z,101499.53
2023-06-11T17:35:54.535Z,101511.91
2023-06-11T17:38:21.517Z,101513.69
2023-06-11T17:40:50.444Z,101522.53
2023-06-11T17:43:17.097Z,101495.16
2023-06-11T17:45:48.764Z,101500.47
2023-06-11T17:48:16.435Z,101505.78
2023-06-11T17:50:43.121Z,101509.34
2023-06-11T17:53:09.772Z,101516.41
2023-06-11T17:55:39.542Z,101512.88
2023-06-11T17:58:06.203Z,101515.53
2023-06-11T18:00:33.658Z,101489.09
2023-06-11T18:03:00.546Z,101510.25
2023-06-11T18:05:33.958Z,101504.97
2023-06-11T18:08:02.952Z,101497.91
2023-06-11T18:10:29.698Z,101508.50
2023-06-11T18:12:56.390Z,101512.03
2023-06-11T18:15:32.897Z,101516.44
2023-06-11T18:18:04.405Z,101502.31
2023-06-11T18:20:31.514Z,101503.19
2023-06-11T18:23:00.982Z,101482.91
2023-06-11T18:25:28.169Z,101518.19
2023-06-11T18:27:57.583Z,101507.59
2023-06-11T18:30:26.833Z,101511.13
2023-06-11T18:32:53.623Z,101499.66
2023-06-11T18:35:20.479Z,101520.81
2023-06-11T18:37:47.638Z,101500.53
2023-06-11T18:40:14.687Z,101504.06
2023-06-11T18:42:42.492Z,101509.31
2023-06-11T18:45:10.411Z,101513.75
2023-06-11T18:47:37.311Z,101507.56
2023-06-11T18:50:05.474Z,101516.38
2023-06-11T18:52:32.272Z,101522.53
2023-06-11T18:54:59.048Z,101510.16
2023-06-11T18:57:27.809Z,101498.72
2023-06-11T18:59:58.201Z,101521.63
2023-06-11T19:02:27.399Z,101525.13
2023-06-11T19:04:55.535Z,101518.94
2023-06-11T19:07:24.398Z,101521.59
2023-06-11T19:09:53.472Z,101527.69
2023-06-11T19:12:20.445Z,101480.03
2023-06-11T19:14:47.531Z,101529.44
2023-06-11T19:17:14.367Z,101528.50
2023-06-11T19:19:41.074Z,101524.94
2023-06-11T19:22:08.137Z,101528.47
2023-06-11T19:24:35.771Z,101535.50
2023-06-11T19:27:05.023Z,101530.19
2023-06-11T19:29:35.551Z,101542.50
2023-06-11T19:32:04.070Z,101537.22
2023-06-11T19:34:30.986Z,101546.91
2023-06-11T19:36:57.793Z,101536.28
2023-06-11T19:39:24.586Z,101538.91
2023-06-11T19:41:51.480Z,101536.22
2023-06-11T19:44:21.603Z,101548.56
2023-06-11T19:46:48.411Z,101545.03
2023-06-11T19:49:15.329Z,101523.84
2023-06-11T19:51:42.123Z,101547.66
2023-06-11T19:54:15.017Z,101544.13
2023-06-11T19:56:42.040Z,101539.69
2023-06-11T19:59:15.083Z,101535.28
2023-06-11T20:01:44.362Z,101543.22
2023-06-11T20:04:13.403Z,101535.22
2023-06-11T20:06:43.067Z,101548.50
2023-06-11T20:09:10.197Z,101538.75
2023-06-11T20:11:37.052Z,101551.13
2023-06-11T20:14:05.928Z,101561.69
2023-06-11T20:16:32.718Z,101560.78
2023-06-11T20:19:04.097Z,101559.00
2023-06-11T20:21:31.002Z,101565.16
2023-06-11T20:23:57.749Z,101565.16
2023-06-11T20:26:24.452Z,101566.88
2023-06-11T20:28:51.168Z,101566.84
2023-06-11T20:31:20.205Z,101568.56
2023-06-11T20:33:46.965Z,101562.38
2023-06-11T20:36:13.729Z,101564.94
2023-06-11T20:38:42.723Z,101568.47
2023-06-11T20:41:09.627Z,101544.56
2023-06-11T20:43:36.440Z,101567.56
2023-06-11T20:46:11.595Z,101575.47
2023-06-11T20:48:44.751Z,101571.94
2023-06-11T20:51:16.038Z,101575.44
2023-06-11T20:53:44.921Z,101574.53
2023-06-11T20:56:11.898Z,101573.63
2023-06-11T20:58:38.602Z,101569.22
2023-06-11T21:01:05.739Z,101568.34
2023-06-11T21:03:32.514Z,101568.34
2023-06-11T21:06:02.002Z,101565.69
2023-06-11T21:08:28.793Z,101567.44
2023-06-11T21:10:57.925Z,101568.31
2023-06-11T21:13:26.750Z,101533.84
2023-06-11T21:15:55.818Z,101558.59
2023-06-11T21:18:22.563Z,101544.41
2023-06-11T21:20:49.289Z,101550.59
2023-06-11T21:23:16.113Z,101561.19
2023-06-11T21:25:42.844Z,101571.72
2023-06-11T21:28:11.729Z,101573.44
2023-06-11T21:30:38.373Z,101577.78
2023-06-11T21:33:05.281Z,101566.31
2023-06-11T21:35:36.757Z,101574.22
2023-06-11T21:38:06.144Z,101574.19
2023-06-11T21:40:32.824Z,101582.06
2023-06-11T21:42:59.553Z,101577.63
2023-06-11T21:45:28.622Z,101566.09
2023-06-11T21:47:57.617Z,101557.13
2023-06-11T21:50:28.898Z,101581.03
2023-06-11T21:52:56.927Z,101581.03
2023-06-11T21:55:23.725Z,101587.16
2023-06-11T21:57:52.590Z,101588.94
2023-06-11T22:00:20.382Z,101580.94
2023-06-11T22:02:47.154Z,101562.31
2023-06-11T22:05:16.163Z,101585.38
2023-06-11T22:07:45.807Z,101581.91
2023-06-11T22:10:12.849Z,101567.72
2023-06-11T22:12:42.817Z,101583.66
2023-06-11T22:15:16.888Z,101584.56
2023-06-11T22:17:45.665Z,101591.56
2023-06-11T22:20:16.073Z,101598.63
2023-06-11T22:22:43.813Z,101592.47
2023-06-11T22:25:12.183Z,101597.75
2023-06-11T22:27:43.870Z,101607.41
2023-06-11T22:30:11.899Z,101596.03
2023-06-11T22:32:39.206Z,101602.16
2023-06-11T22:35:08.775Z,101575.63
2023-06-11T22:37:37.287Z,101598.66
2023-06-11T22:40:07.928Z,101595.13
2023-06-11T22:42:34.743Z,101595.13
2023-06-11T22:45:01.778Z,101583.53
2023-06-11T22:47:34.162Z,101596.81
2023-06-11T22:50:01.278Z,101600.25
2023-06-11T22:52:39.926Z,101602.00
2023-06-11T22:55:12.534Z,101594.03
2023-06-11T22:57:39.306Z,101590.41
2023-06-11T23:00:07.629Z,101600.97
2023-06-11T23:02:34.297Z,101606.22
2023-06-11T23:05:04.808Z,101601.75
2023-06-11T23:07:36.063Z,101597.28
2023-06-11T23:10:06.402Z,101584.00
2023-06-11T23:12:33.197Z,101599.91
2023-06-11T23:14:59.878Z,101593.69
2023-06-11T23:17:28.848Z,101579.56
2023-06-11T23:19:55.567Z,101571.56
2023-06-11T23:22:25.180Z,101583.88
2023-06-11T23:24:52.108Z,101589.13
2023-06-11T23:27:22.780Z,101586.47
2023-06-11T23:29:54.973Z,101585.59
2023-06-11T23:32:21.862Z,101581.13
2023-06-11T23:34:50.244Z,101579.34
2023-06-11T23:37:17.679Z,101572.28
2023-06-11T23:39:46.690Z,101560.78
2023-06-11T23:42:13.436Z,101551.06
2023-06-11T23:44:40.221Z,101569.59
2023-06-11T23:47:09.514Z,101576.59
2023-06-11T23:49:36.718Z,101571.34
2023-06-11T23:52:06.217Z,101573.91
2023-06-11T23:54:33.267Z,101566.88
2023-06-11T23:56:59.904Z,101567.72
2023-06-11T23:59:26.585Z,101575.63
